sensor_id;sensor_type;location;lat;lon;timestamp;temperature;humidity
21259;DHT22;10787;53.364;-1.480;2023-02-24T00:01:34;5.70;99.90
21259;DHT22;10787;53.364;-1.480;2023-02-24T00:04:10;5.70;99.90
21259;DHT22;10787;53.364;-1.480;2023-02-24T00:06:39;5.80;99.90
21259;DHT22;10787;53.364;-1.480;2023-02-24T00:09:07;5.70;99.90
21259;DHT22;10787;53.364;-1.480;2023-02-24T00:11:40;5.80;99.90
21259;DHT22;10787;53.364;-1.480;2023-02-24T00:14:07;5.80;99.90
21259;DHT22;10787;53.364;-1.480;2023-02-24T00:16:34;5.80;99.90
21259;DHT22;10787;53.364;-1.480;2023-02-24T00:19:00;5.80;99.90
21259;DHT22;10787;53.364;-1.480;2023-02-24T00:21:26;5.80;99.90
21259;DHT22;10787;53.364;-1.480;2023-02-24T00:23:53;5.90;99.90
21259;DHT22;10787;53.364;-1.480;2023-02-24T00:26:19;5.90;99.90
21259;DHT22;10787;53.364;-1.480;2023-02-24T00:28:45;5.90;99.90
21259;DHT22;10787;53.364;-1.480;2023-02-24T00:31:13;5.90;99.90
21259;DHT22;10787;53.364;-1.480;2023-02-24T00:33:42;5.90;99.90
21259;DHT22;10787;53.364;-1.480;2023-02-24T00:36:16;6.00;99.90
21259;DHT22;10787;53.364;-1.480;2023-02-24T00:38:56;6.00;99.90
21259;DHT22;10787;53.364;-1.480;2023-02-24T00:41:25;6.00;99.90
21259;DHT22;10787;53.364;-1.480;2023-02-24T00:43:59;6.00;99.90
21259;DHT22;10787;53.364;-1.480;2023-02-24T00:46:31;6.00;99.90
21259;DHT22;10787;53.364;-1.480;2023-02-24T00:49:00;6.00;99.90
21259;DHT22;10787;53.364;-1.480;2023-02-24T00:51:33;6.00;99.90
21259;DHT22;10787;53.364;-1.480;2023-02-24T00:54:00;6.10;99.90
21259;DHT22;10787;53.364;-1.480;2023-02-24T00:56:27;6.10;99.90
21259;DHT22;10787;53.364;-1.480;2023-02-24T00:58:55;6.10;99.90
21259;DHT22;10787;53.364;-1.480;2023-02-24T01:01:24;6.10;99.90
21259;DHT22;10787;53.364;-1.480;2023-02-24T01:03:51;6.10;99.90
21259;DHT22;10787;53.364;-1.480;2023-02-24T01:06:20;6.10;99.90
21259;DHT22;10787;53.364;-1.480;2023-02-24T01:08:48;6.10;99.90
21259;DHT22;10787;53.364;-1.480;2023-02-24T01:11:16;6.20;99.90
21259;DHT22;10787;53.364;-1.480;2023-02-24T01:14:08;6.20;99.90
21259;DHT22;10787;53.364;-1.480;2023-02-24T01:16:34;6.20;99.90
21259;DHT22;10787;53.364;-1.480;2023-02-24T01:19:01;6.20;99.90
21259;DHT22;10787;53.364;-1.480;2023-02-24T01:21:27;6.30;99.90
21259;DHT22;10787;53.364;-1.480;2023-02-24T01:23:53;6.30;99.90
21259;DHT22;10787;53.364;-1.480;2023-02-24T01:26:19;6.30;99.90
21259;DHT22;10787;53.364;-1.480;2023-02-24T01:28:45;6.30;99.90
21259;DHT22;10787;53.364;-1.480;2023-02-24T01:31:14;6.30;99.90
21259;DHT22;10787;53.364;-1.480;2023-02-24T01:33:54;6.30;99.90
21259;DHT22;10787;53.364;-1.480;2023-02-24T01:36:24;6.30;99.90
21259;DHT22;10787;53.364;-1.480;2023-02-24T01:38:51;6.30;99.90
21259;DHT22;10787;53.364;-1.480;2023-02-24T01:41:22;6.30;99.90
21259;DHT22;10787;53.364;-1.480;2023-02-24T01:43:58;6.30;99.90
21259;DHT22;10787;53.364;-1.480;2023-02-24T01:46:25;6.40;99.90
21259;DHT22;10787;53.364;-1.480;2023-02-24T01:48:53;6.40;99.90
21259;DHT22;10787;53.364;-1.480;2023-02-24T01:51:20;6.40;99.90
21259;DHT22;10787;53.364;-1.480;2023-02-24T01:53:46;6.40;99.90
21259;DHT22;10787;53.364;-1.480;2023-02-24T01:56:12;6.50;99.90
21259;DHT22;10787;53.364;-1.480;2023-02-24T01:58:39;6.50;99.90
21259;DHT22;10787;53.364;-1.480;2023-02-24T02:01:06;6.50;99.90
21259;DHT22;10787;53.364;-1.480;2023-02-24T02:03:56;6.60;99.90
21259;DHT22;10787;53.364;-1.480;2023-02-24T02:06:23;6.60;99.90
21259;DHT22;10787;53.364;-1.480;2023-02-24T02:08:49;6.60;99.90
21259;DHT22;10787;53.364;-1.480;2023-02-24T02:11:16;6.60;99.90
21259;DHT22;10787;53.364;-1.480;2023-02-24T02:13:47;6.70;99.90
21259;DHT22;10787;53.364;-1.480;2023-02-24T02:24:33;6.80;99.90
21259;DHT22;10787;53.364;-1.480;2023-02-24T02:36:14;6.90;99.90
21259;DHT22;10787;53.364;-1.480;2023-02-24T02:38:54;6.90;99.90
21259;DHT22;10787;53.364;-1.480;2023-02-24T02:41:27;6.90;99.90
21259;DHT22;10787;53.364;-1.480;2023-02-24T02:44:11;6.90;99.90
21259;DHT22;10787;53.364;-1.480;2023-02-24T02:46:51;7.00;99.90
21259;DHT22;10787;53.364;-1.480;2023-02-24T02:49:19;7.00;99.90
21259;DHT22;10787;53.364;-1.480;2023-02-24T02:51:52;7.00;99.90
21259;DHT22;10787;53.364;-1.480;2023-02-24T02:54:31;7.00;99.90
21259;DHT22;10787;53.364;-1.480;2023-02-24T02:57:08;7.00;99.90
21259;DHT22;10787;53.364;-1.480;2023-02-24T02:59:42;7.00;99.90
21259;DHT22;10787;53.364;-1.480;2023-02-24T03:02:16;7.00;99.90
21259;DHT22;10787;53.364;-1.480;2023-02-24T03:04:51;7.00;99.90
21259;DHT22;10787;53.364;-1.480;2023-02-24T03:07:21;7.10;99.90
21259;DHT22;10787;53.364;-1.480;2023-02-24T03:09:54;7.10;99.90
21259;DHT22;10787;53.364;-1.480;2023-02-24T03:12:22;7.10;99.90
21259;DHT22;10787;53.364;-1.480;2023-02-24T03:14:53;7.10;99.90
21259;DHT22;10787;53.364;-1.480;2023-02-24T03:17:25;7.20;99.90
21259;DHT22;10787;53.364;-1.480;2023-02-24T03:20:18;7.20;99.90
21259;DHT22;10787;53.364;-1.480;2023-02-24T03:22:47;7.10;99.90
21259;DHT22;10787;53.364;-1.480;2023-02-24T03:25:20;7.10;99.90
21259;DHT22;10787;53.364;-1.480;2023-02-24T03:27:52;7.10;99.90
21259;DHT22;10787;53.364;-1.480;2023-02-24T03:30:31;7.10;99.90
21259;DHT22;10787;53.364;-1.480;2023-02-24T03:33:07;7.00;99.90
21259;DHT22;10787;53.364;-1.480;2023-02-24T03:35:39;7.00;99.90
21259;DHT22;10787;53.364;-1.480;2023-02-24T03:38:06;7.00;99.90
21259;DHT22;10787;53.364;-1.480;2023-02-24T03:40:39;6.90;99.90
21259;DHT22;10787;53.364;-1.480;2023-02-24T03:43:18;6.90;99.90
21259;DHT22;10787;53.364;-1.480;2023-02-24T03:45:47;6.90;99.90
21259;DHT22;10787;53.364;-1.480;2023-02-24T03:48:13;6.80;99.90
21259;DHT22;10787;53.364;-1.480;2023-02-24T03:50:41;6.80;99.90
21259;DHT22;10787;53.364;-1.480;2023-02-24T04:04:17;6.90;99.90
21259;DHT22;10787;53.364;-1.480;2023-02-24T04:06:51;7.00;99.90
21259;DHT22;10787;53.364;-1.480;2023-02-24T04:12:10;7.10;99.90
21259;DHT22;10787;53.364;-1.480;2023-02-24T04:14:46;7.10;99.90
21259;DHT22;10787;53.364;-1.480;2023-02-24T04:17:21;7.20;99.90
21259;DHT22;10787;53.364;-1.480;2023-02-24T04:19:54;7.30;99.90
21259;DHT22;10787;53.364;-1.480;2023-02-24T04:22:23;7.30;99.90
21259;DHT22;10787;53.364;-1.480;2023-02-24T04:24:54;7.30;99.90
21259;DHT22;10787;53.364;-1.480;2023-02-24T04:27:21;7.40;99.90
21259;DHT22;10787;53.364;-1.480;2023-02-24T04:29:53;7.40;99.90
21259;DHT22;10787;53.364;-1.480;2023-02-24T04:32:23;7.40;99.90
21259;DHT22;10787;53.364;-1.480;2023-02-24T04:34:50;7.40;99.90
21259;DHT22;10787;53.364;-1.480;2023-02-24T04:37:18;7.30;99.90
21259;DHT22;10787;53.364;-1.480;2023-02-24T04:39:48;7.30;99.90
21259;DHT22;10787;53.364;-1.480;2023-02-24T04:42:16;7.40;99.90
21259;DHT22;10787;53.364;-1.480;2023-02-24T04:44:45;7.40;99.90
21259;DHT22;10787;53.364;-1.480;2023-02-24T04:47:11;7.40;99.90
21259;DHT22;10787;53.364;-1.480;2023-02-24T04:49:37;7.40;99.90
21259;DHT22;10787;53.364;-1.480;2023-02-24T04:52:06;7.40;99.90
21259;DHT22;10787;53.364;-1.480;2023-02-24T04:54:33;7.50;99.90
21259;DHT22;10787;53.364;-1.480;2023-02-24T04:57:00;7.50;99.90
21259;DHT22;10787;53.364;-1.480;2023-02-24T04:59:26;7.50;99.90
21259;DHT22;10787;53.364;-1.480;2023-02-24T05:01:52;7.50;99.90
21259;DHT22;10787;53.364;-1.480;2023-02-24T05:04:18;7.50;99.90
21259;DHT22;10787;53.364;-1.480;2023-02-24T05:06:45;7.50;99.90
21259;DHT22;10787;53.364;-1.480;2023-02-24T05:09:13;7.50;99.90
21259;DHT22;10787;53.364;-1.480;2023-02-24T05:11:43;7.50;99.90
21259;DHT22;10787;53.364;-1.480;2023-02-24T05:14:11;7.50;99.90
21259;DHT22;10787;53.364;-1.480;2023-02-24T05:16:45;7.50;99.90
21259;DHT22;10787;53.364;-1.480;2023-02-24T05:19:14;7.50;99.90
21259;DHT22;10787;53.364;-1.480;2023-02-24T05:21:58;7.50;99.90
21259;DHT22;10787;53.364;-1.480;2023-02-24T05:24:27;7.40;99.90
21259;DHT22;10787;53.364;-1.480;2023-02-24T05:26:55;7.40;99.90
21259;DHT22;10787;53.364;-1.480;2023-02-24T05:29:28;7.40;99.90
21259;DHT22;10787;53.364;-1.480;2023-02-24T05:31:55;7.40;99.90
21259;DHT22;10787;53.364;-1.480;2023-02-24T05:34:25;7.40;99.90
21259;DHT22;10787;53.364;-1.480;2023-02-24T05:36:51;7.40;99.90
21259;DHT22;10787;53.364;-1.480;2023-02-24T05:39:18;7.40;99.90
21259;DHT22;10787;53.364;-1.480;2023-02-24T05:41:46;7.40;99.90
21259;DHT22;10787;53.364;-1.480;2023-02-24T05:44:18;7.30;99.90
21259;DHT22;10787;53.364;-1.480;2023-02-24T05:46:47;7.30;99.90
21259;DHT22;10787;53.364;-1.480;2023-02-24T05:49:17;7.20;99.90
21259;DHT22;10787;53.364;-1.480;2023-02-24T05:51:51;7.20;99.90
21259;DHT22;10787;53.364;-1.480;2023-02-24T05:54:26;7.20;99.90
21259;DHT22;10787;53.364;-1.480;2023-02-24T05:57:02;7.20;99.90
21259;DHT22;10787;53.364;-1.480;2023-02-24T05:59:28;7.30;99.90
21259;DHT22;10787;53.364;-1.480;2023-02-24T06:01:59;7.30;99.90
21259;DHT22;10787;53.364;-1.480;2023-02-24T06:04:25;7.30;99.90
21259;DHT22;10787;53.364;-1.480;2023-02-24T06:07:12;7.40;99.90
21259;DHT22;10787;53.364;-1.480;2023-02-24T06:09:39;7.40;99.90
21259;DHT22;10787;53.364;-1.480;2023-02-24T06:12:08;7.50;99.90
21259;DHT22;10787;53.364;-1.480;2023-02-24T06:14:34;7.50;99.90
21259;DHT22;10787;53.364;-1.480;2023-02-24T06:17:00;7.50;99.90
21259;DHT22;10787;53.364;-1.480;2023-02-24T06:19:28;7.50;99.90
21259;DHT22;10787;53.364;-1.480;2023-02-24T06:22:05;7.50;99.90
21259;DHT22;10787;53.364;-1.480;2023-02-24T06:24:35;7.50;99.90
21259;DHT22;10787;53.364;-1.480;2023-02-24T06:27:03;7.50;99.90
21259;DHT22;10787;53.364;-1.480;2023-02-24T06:29:34;7.50;99.90
21259;DHT22;10787;53.364;-1.480;2023-02-24T06:32:02;7.50;99.90
21259;DHT22;10787;53.364;-1.480;2023-02-24T06:34:42;7.50;99.90
21259;DHT22;10787;53.364;-1.480;2023-02-24T06:37:10;7.40;99.90
21259;DHT22;10787;53.364;-1.480;2023-02-24T06:39:37;7.40;99.90
21259;DHT22;10787;53.364;-1.480;2023-02-24T06:42:04;7.40;99.90
21259;DHT22;10787;53.364;-1.480;2023-02-24T06:44:35;7.40;99.90
21259;DHT22;10787;53.364;-1.480;2023-02-24T06:47:02;7.40;99.90
21259;DHT22;10787;53.364;-1.480;2023-02-24T06:49:31;7.50;99.90
21259;DHT22;10787;53.364;-1.480;2023-02-24T06:51:57;7.50;99.90
21259;DHT22;10787;53.364;-1.480;2023-02-24T06:54:25;7.50;99.90
21259;DHT22;10787;53.364;-1.480;2023-02-24T06:56:56;7.40;99.90
21259;DHT22;10787;53.364;-1.480;2023-02-24T06:59:23;7.40;99.90
21259;DHT22;10787;53.364;-1.480;2023-02-24T07:01:56;7.40;99.90
21259;DHT22;10787;53.364;-1.480;2023-02-24T07:04:23;7.40;99.90
21259;DHT22;10787;53.364;-1.480;2023-02-24T07:06:57;7.50;99.90
21259;DHT22;10787;53.364;-1.480;2023-02-24T07:09:28;7.70;99.90
21259;DHT22;10787;53.364;-1.480;2023-02-24T07:11:55;7.80;99.90
21259;DHT22;10787;53.364;-1.480;2023-02-24T07:14:27;7.90;99.90
21259;DHT22;10787;53.364;-1.480;2023-02-24T07:16:55;7.90;99.90
21259;DHT22;10787;53.364;-1.480;2023-02-24T07:19:25;7.90;99.90
21259;DHT22;10787;53.364;-1.480;2023-02-24T07:21:55;7.90;99.90
21259;DHT22;10787;53.364;-1.480;2023-02-24T07:24:25;8.00;99.90
21259;DHT22;10787;53.364;-1.480;2023-02-24T07:27:03;8.10;99.90
21259;DHT22;10787;53.364;-1.480;2023-02-24T07:29:31;8.20;99.90
21259;DHT22;10787;53.364;-1.480;2023-02-24T07:31:58;8.20;99.90
21259;DHT22;10787;53.364;-1.480;2023-02-24T07:34:26;8.20;99.90
21259;DHT22;10787;53.364;-1.480;2023-02-24T07:36:53;8.20;99.90
21259;DHT22;10787;53.364;-1.480;2023-02-24T07:39:21;8.20;99.90
21259;DHT22;10787;53.364;-1.480;2023-02-24T07:41:51;8.30;99.90
21259;DHT22;10787;53.364;-1.480;2023-02-24T07:44:21;8.30;99.90
21259;DHT22;10787;53.364;-1.480;2023-02-24T07:46:49;8.30;99.90
21259;DHT22;10787;53.364;-1.480;2023-02-24T07:49:17;8.40;99.90
21259;DHT22;10787;53.364;-1.480;2023-02-24T07:51:45;8.40;99.90
21259;DHT22;10787;53.364;-1.480;2023-02-24T07:54:12;8.40;99.90
21259;DHT22;10787;53.364;-1.480;2023-02-24T07:56:40;8.40;99.90
21259;DHT22;10787;53.364;-1.480;2023-02-24T07:59:11;8.40;99.90
21259;DHT22;10787;53.364;-1.480;2023-02-24T08:01:41;8.50;99.90
21259;DHT22;10787;53.364;-1.480;2023-02-24T08:04:16;8.60;99.90
21259;DHT22;10787;53.364;-1.480;2023-02-24T08:06:42;8.70;99.90
21259;DHT22;10787;53.364;-1.480;2023-02-24T08:09:18;8.70;99.90
21259;DHT22;10787;53.364;-1.480;2023-02-24T08:12:07;8.80;99.90
21259;DHT22;10787;53.364;-1.480;2023-02-24T08:14:33;8.80;99.90
21259;DHT22;10787;53.364;-1.480;2023-02-24T08:17:01;8.90;99.90
21259;DHT22;10787;53.364;-1.480;2023-02-24T08:19:31;9.10;99.90
21259;DHT22;10787;53.364;-1.480;2023-02-24T08:22:08;9.20;99.90
21259;DHT22;10787;53.364;-1.480;2023-02-24T08:24:55;9.30;99.90
21259;DHT22;10787;53.364;-1.480;2023-02-24T08:27:27;9.30;99.90
21259;DHT22;10787;53.364;-1.480;2023-02-24T08:29:57;9.30;99.90
21259;DHT22;10787;53.364;-1.480;2023-02-24T08:35:12;9.30;99.90
21259;DHT22;10787;53.364;-1.480;2023-02-24T08:37:52;9.30;99.90
21259;DHT22;10787;53.364;-1.480;2023-02-24T08:40:27;9.40;99.90
21259;DHT22;10787;53.364;-1.480;2023-02-24T08:45:54;9.60;99.90
21259;DHT22;10787;53.364;-1.480;2023-02-24T08:48:40;9.70;99.90
21259;DHT22;10787;53.364;-1.480;2023-02-24T08:53:40;9.80;99.90
21259;DHT22;10787;53.364;-1.480;2023-02-24T08:56:09;9.80;99.90
21259;DHT22;10787;53.364;-1.480;2023-02-24T08:58:43;9.90;99.90
21259;DHT22;10787;53.364;-1.480;2023-02-24T09:01:16;9.90;99.90
21259;DHT22;10787;53.364;-1.480;2023-02-24T09:03:47;10.00;99.90
21259;DHT22;10787;53.364;-1.480;2023-02-24T09:06:17;10.10;99.90
21259;DHT22;10787;53.364;-1.480;2023-02-24T09:08:51;10.10;99.90
21259;DHT22;10787;53.364;-1.480;2023-02-24T09:11:38;10.10;99.90
21259;DHT22;10787;53.364;-1.480;2023-02-24T09:14:13;10.10;99.90
21259;DHT22;10787;53.364;-1.480;2023-02-24T09:16:47;10.20;99.90
21259;DHT22;10787;53.364;-1.480;2023-02-24T09:22:30;10.30;99.90
21259;DHT22;10787;53.364;-1.480;2023-02-24T09:25:03;10.30;99.90
21259;DHT22;10787;53.364;-1.480;2023-02-24T09:28:05;10.30;99.90
21259;DHT22;10787;53.364;-1.480;2023-02-24T09:30:34;10.30;99.90
21259;DHT22;10787;53.364;-1.480;2023-02-24T09:38:45;10.30;99.90
21259;DHT22;10787;53.364;-1.480;2023-02-24T09:44:29;10.30;99.90
21259;DHT22;10787;53.364;-1.480;2023-02-24T09:47:17;10.30;99.90
21259;DHT22;10787;53.364;-1.480;2023-02-24T09:50:04;10.30;99.90
21259;DHT22;10787;53.364;-1.480;2023-02-24T09:52:39;10.20;99.90
21259;DHT22;10787;53.364;-1.480;2023-02-24T10:00:55;9.60;99.90
21259;DHT22;10787;53.364;-1.480;2023-02-24T10:03:32;9.40;99.90
21259;DHT22;10787;53.364;-1.480;2023-02-24T10:06:20;9.20;99.90
21259;DHT22;10787;53.364;-1.480;2023-02-24T10:09:02;9.10;99.90
21259;DHT22;10787;53.364;-1.480;2023-02-24T10:11:44;9.00;99.90
21259;DHT22;10787;53.364;-1.480;2023-02-24T10:17:20;8.90;99.90
21259;DHT22;10787;53.364;-1.480;2023-02-24T10:20:07;8.90;99.90
21259;DHT22;10787;53.364;-1.480;2023-02-24T10:22:56;9.00;99.90
21259;DHT22;10787;53.364;-1.480;2023-02-24T10:28:27;9.10;99.90
21259;DHT22;10787;53.364;-1.480;2023-02-24T10:31:18;9.30;99.90
21259;DHT22;10787;53.364;-1.480;2023-02-24T10:34:01;9.30;99.90
21259;DHT22;10787;53.364;-1.480;2023-02-24T10:36:31;9.40;99.90
21259;DHT22;10787;53.364;-1.480;2023-02-24T10:39:18;9.50;99.90
21259;DHT22;10787;53.364;-1.480;2023-02-24T10:41:53;9.50;99.90
21259;DHT22;10787;53.364;-1.480;2023-02-24T10:44:28;9.60;99.90
21259;DHT22;10787;53.364;-1.480;2023-02-24T10:47:10;9.90;99.90
21259;DHT22;10787;53.364;-1.480;2023-02-24T10:52:11;10.40;99.90
21259;DHT22;10787;53.364;-1.480;2023-02-24T10:54:58;10.50;99.90
21259;DHT22;10787;53.364;-1.480;2023-02-24T10:57:43;10.60;99.90
21259;DHT22;10787;53.364;-1.480;2023-02-24T11:00:20;10.60;99.90
21259;DHT22;10787;53.364;-1.480;2023-02-24T11:03:08;10.60;99.90
21259;DHT22;10787;53.364;-1.480;2023-02-24T11:05:45;10.80;99.90
21259;DHT22;10787;53.364;-1.480;2023-02-24T11:08:34;10.70;99.90
21259;DHT22;10787;53.364;-1.480;2023-02-24T11:13:48;10.90;99.90
21259;DHT22;10787;53.364;-1.480;2023-02-24T11:16:50;10.90;99.90
21259;DHT22;10787;53.364;-1.480;2023-02-24T11:19:59;11.00;99.90
21259;DHT22;10787;53.364;-1.480;2023-02-24T11:22:34;11.00;99.90
21259;DHT22;10787;53.364;-1.480;2023-02-24T11:25:18;10.90;99.90
21259;DHT22;10787;53.364;-1.480;2023-02-24T11:27:45;10.90;99.90
21259;DHT22;10787;53.364;-1.480;2023-02-24T11:33:22;11.20;99.90
21259;DHT22;10787;53.364;-1.480;2023-02-24T11:41:34;11.20;99.90
21259;DHT22;10787;53.364;-1.480;2023-02-24T11:44:19;11.30;99.90
21259;DHT22;10787;53.364;-1.480;2023-02-24T11:46:56;11.40;99.90
21259;DHT22;10787;53.364;-1.480;2023-02-24T11:51:59;11.70;99.90
21259;DHT22;10787;53.364;-1.480;2023-02-24T11:54:49;11.90;99.90
21259;DHT22;10787;53.364;-1.480;2023-02-24T11:57:22;12.40;99.90
21259;DHT22;10787;53.364;-1.480;2023-02-24T11:59:56;13.20;99.90
21259;DHT22;10787;53.364;-1.480;2023-02-24T12:02:45;14.10;99.90
21259;DHT22;10787;53.364;-1.480;2023-02-24T12:05:31;15.00;99.90
21259;DHT22;10787;53.364;-1.480;2023-02-24T12:10:49;16.30;99.90
21259;DHT22;10787;53.364;-1.480;2023-02-24T12:13:29;16.90;99.90
21259;DHT22;10787;53.364;-1.480;2023-02-24T12:18:45;16.20;99.90
21259;DHT22;10787;53.364;-1.480;2023-02-24T12:21:19;15.70;99.90
21259;DHT22;10787;53.364;-1.480;2023-02-24T12:23:49;15.20;99.90
21259;DHT22;10787;53.364;-1.480;2023-02-24T12:26:37;14.90;99.90
21259;DHT22;10787;53.364;-1.480;2023-02-24T12:29:18;14.40;99.90
21259;DHT22;10787;53.364;-1.480;2023-02-24T12:34:50;13.40;99.90
21259;DHT22;10787;53.364;-1.480;2023-02-24T12:46:25;11.60;99.90
21259;DHT22;10787;53.364;-1.480;2023-02-24T12:51:48;11.40;99.90
21259;DHT22;10787;53.364;-1.480;2023-02-24T12:54:28;11.30;99.90
21259;DHT22;10787;53.364;-1.480;2023-02-24T12:57:10;11.30;99.90
21259;DHT22;10787;53.364;-1.480;2023-02-24T12:59:41;11.10;99.90
21259;DHT22;10787;53.364;-1.480;2023-02-24T13:02:56;11.10;99.90
21259;DHT22;10787;53.364;-1.480;2023-02-24T13:05:23;11.00;99.90
21259;DHT22;10787;53.364;-1.480;2023-02-24T13:08:10;10.90;99.90
21259;DHT22;10787;53.364;-1.480;2023-02-24T13:15:55;11.00;99.90
21259;DHT22;10787;53.364;-1.480;2023-02-24T13:18:27;11.10;99.90
21259;DHT22;10787;53.364;-1.480;2023-02-24T13:21:05;11.10;99.90
21259;DHT22;10787;53.364;-1.480;2023-02-24T13:23:32;11.20;99.90
21259;DHT22;10787;53.364;-1.480;2023-02-24T13:25:59;11.20;99.90
21259;DHT22;10787;53.364;-1.480;2023-02-24T13:28:35;11.30;99.90
21259;DHT22;10787;53.364;-1.480;2023-02-24T13:31:05;11.70;99.90
21259;DHT22;10787;53.364;-1.480;2023-02-24T13:33:32;12.40;99.90
21259;DHT22;10787;53.364;-1.480;2023-02-24T13:36:14;12.60;99.90
21259;DHT22;10787;53.364;-1.480;2023-02-24T13:38:45;12.70;99.90
21259;DHT22;10787;53.364;-1.480;2023-02-24T13:44:02;13.90;99.90
21259;DHT22;10787;53.364;-1.480;2023-02-24T13:52:36;16.20;99.90
21259;DHT22;10787;53.364;-1.480;2023-02-24T14:01:07;18.20;99.90
21259;DHT22;10787;53.364;-1.480;2023-02-24T14:03:35;19.30;99.90
21259;DHT22;10787;53.364;-1.480;2023-02-24T14:06:02;19.00;99.90
21259;DHT22;10787;53.364;-1.480;2023-02-24T14:11:09;16.50;99.90
21259;DHT22;10787;53.364;-1.480;2023-02-24T14:13:36;15.20;99.90
21259;DHT22;10787;53.364;-1.480;2023-02-24T14:16:08;14.00;99.90
21259;DHT22;10787;53.364;-1.480;2023-02-24T14:18:34;13.40;99.90
21259;DHT22;10787;53.364;-1.480;2023-02-24T14:21:01;13.10;99.90
21259;DHT22;10787;53.364;-1.480;2023-02-24T14:26:05;14.90;99.90
21259;DHT22;10787;53.364;-1.480;2023-02-24T14:28:36;15.40;99.90
21259;DHT22;10787;53.364;-1.480;2023-02-24T14:31:22;15.70;99.90
21259;DHT22;10787;53.364;-1.480;2023-02-24T14:33:57;15.80;99.90
21259;DHT22;10787;53.364;-1.480;2023-02-24T14:36:28;15.20;99.90
21259;DHT22;10787;53.364;-1.480;2023-02-24T14:41:38;12.80;99.90
21259;DHT22;10787;53.364;-1.480;2023-02-24T14:44:28;12.00;99.90
21259;DHT22;10787;53.364;-1.480;2023-02-24T14:47:00;11.40;99.90
21259;DHT22;10787;53.364;-1.480;2023-02-24T14:49:31;11.00;99.90
21259;DHT22;10787;53.364;-1.480;2023-02-24T14:52:01;10.90;99.90
21259;DHT22;10787;53.364;-1.480;2023-02-24T14:57:02;10.70;99.90
21259;DHT22;10787;53.364;-1.480;2023-02-24T14:59:34;10.60;99.90
21259;DHT22;10787;53.364;-1.480;2023-02-24T15:02:02;10.50;99.90
21259;DHT22;10787;53.364;-1.480;2023-02-24T15:04:38;11.50;99.90
21259;DHT22;10787;53.364;-1.480;2023-02-24T15:07:18;13.30;99.90
21259;DHT22;10787;53.364;-1.480;2023-02-24T15:09:45;15.60;99.90
21259;DHT22;10787;53.364;-1.480;2023-02-24T15:14:56;17.50;99.90
21259;DHT22;10787;53.364;-1.480;2023-02-24T15:17:23;17.00;99.90
21259;DHT22;10787;53.364;-1.480;2023-02-24T15:19:50;15.70;99.90
21259;DHT22;10787;53.364;-1.480;2023-02-24T15:22:26;15.10;99.90
21259;DHT22;10787;53.364;-1.480;2023-02-24T15:24:54;14.30;99.90
21259;DHT22;10787;53.364;-1.480;2023-02-24T15:27:26;13.80;99.90
21259;DHT22;10787;53.364;-1.480;2023-02-24T15:30:04;13.40;99.90
21259;DHT22;10787;53.364;-1.480;2023-02-24T15:32:33;12.80;99.90
21259;DHT22;10787;53.364;-1.480;2023-02-24T15:34:59;12.20;99.90
21259;DHT22;10787;53.364;-1.480;2023-02-24T15:37:39;11.70;99.90
21259;DHT22;10787;53.364;-1.480;2023-02-24T15:40:21;11.40;99.90
21259;DHT22;10787;53.364;-1.480;2023-02-24T15:42:59;11.20;99.90
21259;DHT22;10787;53.364;-1.480;2023-02-24T15:47:56;10.80;99.90
21259;DHT22;10787;53.364;-1.480;2023-02-24T15:50:23;10.80;99.90
21259;DHT22;10787;53.364;-1.480;2023-02-24T15:52:49;10.70;99.90
21259;DHT22;10787;53.364;-1.480;2023-02-24T15:55:26;10.60;99.90
21259;DHT22;10787;53.364;-1.480;2023-02-24T15:58:01;10.50;99.90
21259;DHT22;10787;53.364;-1.480;2023-02-24T16:00:28;10.40;99.90
21259;DHT22;10787;53.364;-1.480;2023-02-24T16:02:56;10.20;99.90
21259;DHT22;10787;53.364;-1.480;2023-02-24T16:05:22;10.20;99.90
21259;DHT22;10787;53.364;-1.480;2023-02-24T16:07:48;10.00;99.90
21259;DHT22;10787;53.364;-1.480;2023-02-24T16:10:23;9.80;99.90
21259;DHT22;10787;53.364;-1.480;2023-02-24T16:12:58;9.80;99.90
21259;DHT22;10787;53.364;-1.480;2023-02-24T16:15:32;10.20;99.90
21259;DHT22;10787;53.364;-1.480;2023-02-24T16:17:59;11.10;99.90
21259;DHT22;10787;53.364;-1.480;2023-02-24T16:20:28;12.10;99.90
21259;DHT22;10787;53.364;-1.480;2023-02-24T16:23:02;12.30;99.90
21259;DHT22;10787;53.364;-1.480;2023-02-24T16:25:34;12.10;99.90
21259;DHT22;10787;53.364;-1.480;2023-02-24T16:28:00;11.80;99.90
21259;DHT22;10787;53.364;-1.480;2023-02-24T16:30:28;11.20;99.90
21259;DHT22;10787;53.364;-1.480;2023-02-24T16:32:58;10.80;99.90
21259;DHT22;10787;53.364;-1.480;2023-02-24T16:35:26;10.50;99.90
21259;DHT22;10787;53.364;-1.480;2023-02-24T16:37:52;10.30;99.90
21259;DHT22;10787;53.364;-1.480;2023-02-24T16:42:50;10.10;99.90
21259;DHT22;10787;53.364;-1.480;2023-02-24T16:45:17;10.00;99.90
21259;DHT22;10787;53.364;-1.480;2023-02-24T16:47:46;9.70;99.90
21259;DHT22;10787;53.364;-1.480;2023-02-24T16:50:18;9.40;99.90
21259;DHT22;10787;53.364;-1.480;2023-02-24T16:52:44;9.00;99.90
21259;DHT22;10787;53.364;-1.480;2023-02-24T16:55:11;8.90;99.90
21259;DHT22;10787;53.364;-1.480;2023-02-24T16:57:38;8.70;99.90
21259;DHT22;10787;53.364;-1.480;2023-02-24T17:00:05;8.50;99.90
21259;DHT22;10787;53.364;-1.480;2023-02-24T17:02:31;8.40;99.90
21259;DHT22;10787;53.364;-1.480;2023-02-24T17:04:56;8.20;99.90
21259;DHT22;10787;53.364;-1.480;2023-02-24T17:07:22;8.10;99.90
21259;DHT22;10787;53.364;-1.480;2023-02-24T17:09:48;8.00;99.90
21259;DHT22;10787;53.364;-1.480;2023-02-24T17:12:16;7.80;99.90
21259;DHT22;10787;53.364;-1.480;2023-02-24T17:14:44;7.70;99.90
21259;DHT22;10787;53.364;-1.480;2023-02-24T17:17:10;7.70;99.90
21259;DHT22;10787;53.364;-1.480;2023-02-24T17:19:36;7.60;99.90
21259;DHT22;10787;53.364;-1.480;2023-02-24T17:22:02;7.50;99.90
21259;DHT22;10787;53.364;-1.480;2023-02-24T17:24:28;7.40;99.90
21259;DHT22;10787;53.364;-1.480;2023-02-24T17:26:55;7.40;99.90
21259;DHT22;10787;53.364;-1.480;2023-02-24T17:29:25;7.30;99.90
21259;DHT22;10787;53.364;-1.480;2023-02-24T17:31:51;7.20;99.90
21259;DHT22;10787;53.364;-1.480;2023-02-24T17:34:16;7.20;99.90
21259;DHT22;10787;53.364;-1.480;2023-02-24T17:36:42;7.10;99.90
21259;DHT22;10787;53.364;-1.480;2023-02-24T17:39:08;7.10;99.90
21259;DHT22;10787;53.364;-1.480;2023-02-24T17:41:34;7.00;99.90
21259;DHT22;10787;53.364;-1.480;2023-02-24T17:44:00;7.00;99.90
21259;DHT22;10787;53.364;-1.480;2023-02-24T17:46:25;6.90;99.90
21259;DHT22;10787;53.364;-1.480;2023-02-24T17:48:51;6.90;99.90
21259;DHT22;10787;53.364;-1.480;2023-02-24T17:51:18;6.80;99.90
21259;DHT22;10787;53.364;-1.480;2023-02-24T17:53:44;6.80;99.90
21259;DHT22;10787;53.364;-1.480;2023-02-24T17:56:11;6.80;99.90
21259;DHT22;10787;53.364;-1.480;2023-02-24T17:58:37;6.80;99.90
21259;DHT22;10787;53.364;-1.480;2023-02-24T18:01:04;6.70;99.90
21259;DHT22;10787;53.364;-1.480;2023-02-24T18:03:34;6.70;99.90
21259;DHT22;10787;53.364;-1.480;2023-02-24T18:06:04;6.70;99.90
21259;DHT22;10787;53.364;-1.480;2023-02-24T18:08:32;6.80;99.90
21259;DHT22;10787;53.364;-1.480;2023-02-24T18:10:58;6.70;99.90
21259;DHT22;10787;53.364;-1.480;2023-02-24T18:13:25;6.80;99.90